createdAt,value
2019-03-02T00:00:34.887Z,100238.55
2019-03-02T00:01:37.077Z,100233.00
2019-03-02T00:02:38.317Z,100231.53
2019-03-02T00:03:39.436Z,100228.67
2019-03-02T00:04:42.071Z,100220.98
2019-03-02T00:05:43.684Z,100217.30
2019-03-02T00:06:44.799Z,100217.17
2019-03-02T00:07:47.700Z,100217.86
2019-03-02T00:08:48.959Z,100212.33
2019-03-02T00:09:50.076Z,100214.36
2019-03-02T00:10:51.200Z,100218.75
2019-03-02T00:11:52.887Z,100212.39
2019-03-02T00:12:55.485Z,100214.42
2019-03-02T00:13:56.700Z,100215.60
2019-03-02T00:14:57.820Z,100220.84
2019-03-02T00:16:00.830Z,100217.83
2019-03-02T00:17:02.061Z,100216.84
2019-03-02T00:18:03.196Z,100209.97
2019-03-02T00:19:06.733Z,100212.78
2019-03-02T00:20:07.440Z,100205.94
2019-03-02T00:21:08.759Z,100202.06
2019-03-02T00:22:09.873Z,100203.77
2019-03-02T00:23:11.000Z,100196.72
2019-03-02T00:24:12.125Z,100188.20
2019-03-02T00:25:13.240Z,100187.02
2019-03-02T00:26:14.362Z,100179.84
2019-03-02T00:27:17.854Z,100175.97
2019-03-02T00:28:18.548Z,100167.27
2019-03-02T00:29:19.667Z,100169.29
2019-03-02T00:30:21.313Z,100167.29
2019-03-02T00:31:23.400Z,100151.17
2019-03-02T00:32:24.513Z,100155.56
2019-03-02T00:33:25.649Z,100154.22
2019-03-02T00:34:28.700Z,100142.30
2019-03-02T00:35:29.800Z,100151.37
2019-03-02T00:36:30.917Z,100148.55
2019-03-02T00:37:32.853Z,100146.88
2019-03-02T00:38:34.310Z,100148.05
2019-03-02T00:39:35.439Z,100151.42
2019-03-02T00:40:36.577Z,100148.94
2019-03-02T00:41:38.647Z,100150.44
2019-03-02T00:42:40.814Z,100150.60
2019-03-02T00:43:41.984Z,100150.47
2019-03-02T00:44:43.105Z,100148.47
2019-03-02T00:45:46.013Z,100141.75
2019-03-02T00:46:47.240Z,100139.42
2019-03-02T00:47:48.355Z,100143.13
2019-03-02T00:48:49.514Z,100146.30
2019-03-02T00:49:50.687Z,100141.61
2019-03-02T00:50:51.802Z,100141.81
2019-03-02T00:51:52.916Z,100140.95
2019-03-02T00:52:55.736Z,100143.50
2019-03-02T00:53:57.162Z,100145.86
2019-03-02T00:54:58.601Z,100136.63
2019-03-02T00:55:59.796Z,100142.34
2019-03-02T00:57:00.911Z,100129.41
2019-03-02T00:58:02.030Z,100129.28
2019-03-02T00:59:04.003Z,100120.57
2019-03-02T01:00:15.288Z,100118.90
2019-03-02T01:01:14.979Z,100120.92
2019-03-02T01:02:16.200Z,100115.91
2019-03-02T01:03:17.317Z,100116.07
2019-03-02T01:04:18.640Z,100111.91
2019-03-02T01:05:19.868Z,100105.36
2019-03-02T01:06:20.994Z,100098.97
2019-03-02T01:07:23.679Z,100100.47
2019-03-02T01:08:25.121Z,100097.13
2019-03-02T01:09:26.382Z,100105.19
2019-03-02T01:10:27.513Z,100090.62
2019-03-02T01:11:29.564Z,100090.45
2019-03-02T01:12:31.626Z,100094.14
2019-03-02T01:13:32.749Z,100088.45
2019-03-02T01:14:33.872Z,100086.12
2019-03-02T01:15:34.998Z,100084.77
2019-03-02T01:16:36.112Z,100078.59
2019-03-02T01:17:37.428Z,100085.45
2019-03-02T01:18:42.103Z,100081.10
2019-03-02T01:19:41.600Z,100078.42
2019-03-02T01:20:42.812Z,100074.59
2019-03-02T01:21:43.940Z,100080.45
2019-03-02T01:22:48.310Z,100073.93
2019-03-02T01:23:48.087Z,100074.09
2019-03-02T01:24:49.212Z,100064.37
2019-03-02T01:25:50.328Z,100066.72
2019-03-02T01:26:51.443Z,100068.06
2019-03-02T01:27:52.558Z,100069.08
2019-03-02T01:28:53.673Z,100066.06
2019-03-02T01:29:55.541Z,100053.00
2019-03-02T01:30:57.066Z,100053.00
2019-03-02T01:31:58.189Z,100064.75
2019-03-02T01:32:59.306Z,100055.03
2019-03-02T01:34:00.724Z,100054.17
2019-03-02T01:35:04.320Z,100049.82
2019-03-02T01:36:05.432Z,100046.33
2019-03-02T01:37:08.186Z,100039.78
2019-03-02T01:38:09.572Z,100039.62
2019-03-02T01:39:10.697Z,100042.79
2019-03-02T01:40:13.537Z,100034.94
2019-03-02T01:41:17.778Z,100025.70
2019-03-02T01:42:17.687Z,100027.58
2019-03-02T01:43:18.904Z,100026.23
2019-03-02T01:44:20.023Z,100027.24
2019-03-02T01:45:24.037Z,100017.53
2019-03-02T01:46:24.205Z,100012.32
2019-03-02T01:47:25.321Z,100016.67
2019-03-02T01:48:27.787Z,100013.33
2019-03-02T01:49:29.053Z,99999.59
2019-03-02T01:50:30.180Z,100000.12
2019-03-02T01:51:31.294Z,100001.46
2019-03-02T01:52:34.255Z,99996.74
2019-03-02T01:53:35.431Z,99991.75
2019-03-02T01:54:36.649Z,99979.31
2019-03-02T01:55:37.776Z,99971.80
2019-03-02T01:56:41.397Z,99965.58
2019-03-02T01:57:41.912Z,99965.58
2019-03-02T01:58:43.030Z,99966.10
2019-03-02T01:59:44.142Z,99964.23
2019-03-02T02:00:45.777Z,99956.88
2019-03-02T02:01:48.325Z,99952.37
2019-03-02T02:02:49.534Z,99946.16
2019-03-02T02:03:50.751Z,99951.19
2019-03-02T02:04:54.585Z,99952.53
2019-03-02T02:05:55.213Z,99948.17
2019-03-02T02:06:56.330Z,99940.13
2019-03-02T02:07:57.561Z,99941.14
2019-03-02T02:09:01.744Z,99931.77
2019-03-02T02:10:03.892Z,99925.91
2019-03-02T02:11:05.021Z,99921.04
2019-03-02T02:12:06.161Z,99916.69
2019-03-02T02:13:07.391Z,99905.14
2019-03-02T02:14:08.510Z,99911.00
2019-03-02T02:15:14.692Z,99904.29
2019-03-02T02:16:15.932Z,99902.63
2019-03-02T02:17:17.537Z,99903.64
2019-03-02T02:18:19.674Z,99896.94
2019-03-02T02:19:20.789Z,99892.58
2019-03-02T02:20:22.203Z,99898.95
2019-03-02T02:21:23.650Z,99895.95
2019-03-02T02:22:26.352Z,99889.25
2019-03-02T02:23:27.469Z,99890.27
2019-03-02T02:24:29.076Z,99886.11
2019-03-02T02:25:32.601Z,99879.89
2019-03-02T02:26:33.333Z,99885.78
2019-03-02T02:27:34.452Z,99882.77
2019-03-02T02:28:35.564Z,99876.75
2019-03-02T02:29:36.681Z,99872.73
2019-03-02T02:30:37.895Z,99868.88
2019-03-02T02:31:44.518Z,99872.23
2019-03-02T02:32:42.030Z,99871.39
2019-03-02T02:33:44.685Z,99863.53
2019-03-02T02:34:46.002Z,99856.51
2019-03-02T02:35:47.143Z,99851.31
2019-03-02T02:36:48.298Z,99857.52
2019-03-02T02:37:49.410Z,99854.52
2019-03-02T02:38:54.509Z,99852.84
2019-03-02T02:39:53.559Z,99852.52
2019-03-02T02:40:54.693Z,99848.83
2019-03-02T02:42:00.085Z,99841.80
2019-03-02T02:42:58.966Z,99842.81
2019-03-02T02:44:00.507Z,99834.44
2019-03-02T02:45:02.102Z,99833.10
2019-03-02T02:46:03.213Z,99828.23
2019-03-02T02:47:07.336Z,99818.03
2019-03-02T02:48:07.368Z,99826.08
2019-03-02T02:49:10.168Z,99824.89
2019-03-02T02:50:14.008Z,99823.23
2019-03-02T02:51:15.230Z,99827.77
2019-03-02T02:52:16.539Z,99819.41
2019-03-02T02:53:17.667Z,99815.88
2019-03-02T02:54:23.024Z,99819.08
2019-03-02T02:55:22.063Z,99807.83
2019-03-02T02:56:23.246Z,99813.72
2019-03-02T02:57:24.403Z,99802.67
2019-03-02T02:58:25.516Z,99801.82
2019-03-02T02:59:26.739Z,99799.62
2019-03-02T03:00:27.853Z,99803.65
2019-03-02T03:01:33.317Z,99800.48
2019-03-02T03:02:32.126Z,99794.27
2019-03-02T03:03:33.244Z,99801.82
2019-03-02T03:04:36.833Z,99796.63
2019-03-02T03:05:37.382Z,99790.25
2019-03-02T03:06:38.510Z,99792.08
2019-03-02T03:07:39.789Z,99781.88
2019-03-02T03:08:41.919Z,99780.55
2019-03-02T03:09:49.601Z,99781.52
2019-03-02T03:10:51.283Z,99781.52
2019-03-02T03:11:52.410Z,99783.23
2019-03-02T03:12:56.729Z,99779.86
2019-03-02T03:13:56.675Z,99775.02
2019-03-02T03:14:58.403Z,99770.16
2019-03-02T03:16:00.821Z,99771.50
2019-03-02T03:17:13.123Z,99770.67
2019-03-02T03:18:14.887Z,99760.45
2019-03-02T03:19:16.480Z,99763.13
2019-03-02T03:20:17.692Z,99760.45
2019-03-02T03:21:27.257Z,99756.43
2019-03-02T03:22:21.927Z,99753.75
2019-03-02T03:23:24.834Z,99757.28
2019-03-02T03:24:26.090Z,99756.95
2019-03-02T03:25:27.198Z,99755.94
2019-03-02T03:26:35.367Z,99753.75
2019-03-02T03:27:37.459Z,99751.92
2019-03-02T03:28:38.615Z,99749.92
2019-03-02T03:29:44.486Z,99753.09
2019-03-02T03:30:42.854Z,99741.37
2019-03-02T03:31:43.972Z,99732.52
2019-03-02T03:32:54.622Z,99745.91
2019-03-02T03:33:48.119Z,99742.91
2019-03-02T03:34:49.247Z,99741.04
2019-03-02T03:35:51.682Z,99730.32
2019-03-02T03:36:53.399Z,99727.84
2019-03-02T03:37:54.509Z,99728.66
2019-03-02T03:38:55.637Z,99723.49
2019-03-02T03:39:56.762Z,99724.84
2019-03-02T03:41:00.142Z,99714.61
2019-03-02T03:42:00.989Z,99729.87
2019-03-02T03:43:03.707Z,99717.29
2019-03-02T03:44:05.142Z,99715.30
2019-03-02T03:45:14.434Z,99709.13
2019-03-02T03:46:18.023Z,99708.59
2019-03-02T03:47:18.669Z,99698.41
2019-03-02T03:48:19.783Z,99703.92
2019-03-02T03:49:20.916Z,99698.77
2019-03-02T03:50:22.035Z,99707.29
2019-03-02T03:51:26.039Z,99705.13
2019-03-02T03:52:26.168Z,99696.77
2019-03-02T03:53:30.781Z,99696.45
2019-03-02T03:54:30.359Z,99684.88
2019-03-02T03:55:31.466Z,99690.23
2019-03-02T03:56:32.780Z,99695.27
2019-03-02T03:57:34.251Z,99697.95
2019-03-02T03:58:39.796Z,99695.27
2019-03-02T03:59:38.425Z,99683.41
2019-03-02T04:00:40.393Z,99691.61
2019-03-02T04:01:41.657Z,99693.28
2019-03-02T04:02:42.889Z,99686.25
2019-03-02T04:03:47.187Z,99670.18
2019-03-02T04:04:47.270Z,99672.86
2019-03-02T04:05:48.726Z,99674.69
2019-03-02T04:06:50.013Z,99666.66
2019-03-02T04:07:51.490Z,99663.98
2019-03-02T04:08:52.960Z,99668.19
2019-03-02T04:09:54.207Z,99660.64
2019-03-02T04:10:55.321Z,99656.95
2019-03-02T04:11:56.540Z,99649.44
2019-03-02T04:13:03.935Z,99654.28
2019-03-02T04:14:00.776Z,99649.44
2019-03-02T04:15:03.102Z,99649.93
2019-03-02T04:16:04.426Z,99652.12
2019-03-02T04:17:05.543Z,99645.42
2019-03-02T04:18:26.840Z,99641.89
2019-03-02T04:19:33.939Z,99644.58
2019-03-02T04:20:37.407Z,99641.08
2019-03-02T04:21:38.725Z,99638.89
2019-03-02T04:22:44.525Z,99622.82
2019-03-02T04:23:42.857Z,99623.34
2019-03-02T04:24:43.978Z,99613.64
2019-03-02T04:25:45.376Z,99611.78
2019-03-02T04:26:46.499Z,99610.97
2019-03-02T04:27:53.673Z,99602.93
2019-03-02T04:28:51.155Z,99607.77
2019-03-02T04:29:55.363Z,99609.95
2019-03-02T04:30:57.102Z,99601.92
2019-03-02T04:31:58.222Z,99608.09
2019-03-02T04:33:01.904Z,99600.05
2019-03-02T04:34:02.463Z,99592.22
2019-03-02T04:35:06.784Z,99598.72
2019-03-02T04:36:10.028Z,99575.63
2019-03-02T04:37:11.180Z,99575.14
2019-03-02T04:38:12.293Z,99580.17
2019-03-02T04:39:14.732Z,99572.13
2019-03-02T04:40:16.353Z,99575.63
2019-03-02T04:41:17.505Z,99569.45
2019-03-02T04:42:18.624Z,99563.77
2019-03-02T04:43:19.744Z,99571.81
2019-03-02T04:44:20.861Z,99566.13
2019-03-02T04:45:22.086Z,99565.80
2019-03-02T04:46:23.219Z,99566.63
2019-03-02T04:47:26.356Z,99557.45
2019-03-02T04:48:27.448Z,99557.45
2019-03-02T04:49:28.565Z,99556.11
2019-03-02T04:50:29.788Z,99551.23
2019-03-02T04:51:30.912Z,99537.20
2019-03-02T04:52:32.027Z,99548.23
2019-03-02T04:53:33.136Z,99547.59
2019-03-02T04:54:37.406Z,99544.74
2019-03-02T04:55:37.264Z,99539.39
2019-03-02T04:56:38.525Z,99540.41
2019-03-02T04:57:39.742Z,99533.38
2019-03-02T04:58:43.705Z,99546.77
2019-03-02T04:59:43.884Z,99534.39
2019-03-02T05:00:44.998Z,99529.05
2019-03-02T05:01:46.356Z,99523.69
2019-03-02T05:02:47.479Z,99526.85
2019-03-02T05:03:48.591Z,99526.36
2019-03-02T05:04:49.704Z,99528.52
2019-03-02T05:05:50.828Z,99513.98
2019-03-02T05:06:54.521Z,99520.16
2019-03-02T05:07:55.000Z,99515.66
2019-03-02T05:08:56.233Z,99509.45
2019-03-02T05:09:57.356Z,99521.01
2019-03-02T05:11:00.683Z,99510.30
2019-03-02T05:12:01.681Z,99502.27
2019-03-02T05:13:02.788Z,99509.28
2019-03-02T05:14:04.354Z,99496.91
2019-03-02T05:15:15.948Z,99488.88
2019-03-02T05:16:15.839Z,99497.92
2019-03-02T05:17:17.120Z,99490.70
2019-03-02T05:18:18.976Z,99483.52
2019-03-02T05:19:20.157Z,99487.53
2019-03-02T05:20:21.278Z,99490.70
2019-03-02T05:21:22.394Z,99482.67
2019-03-02T05:22:23.633Z,99474.31
2019-03-02T05:23:27.669Z,99484.53
2019-03-02T05:24:27.869Z,99477.31
2019-03-02T05:25:29.095Z,99480.52
2019-03-02T05:26:30.227Z,99471.14
2019-03-02T05:27:32.034Z,99478.33
2019-03-02T05:28:34.969Z,99474.31
2019-03-02T05:29:36.080Z,99474.31
2019-03-02T05:30:37.202Z,99465.47
2019-03-02T05:31:40.955Z,99465.79
2019-03-02T05:32:41.724Z,99468.63
2019-03-02T05:33:42.954Z,99472.65
2019-03-02T05:34:44.076Z,99475.86
2019-03-02T05:35:47.751Z,99463.48
2019-03-02T05:36:48.249Z,99466.16
2019-03-02T05:37:49.690Z,99460.16
2019-03-02T05:38:50.801Z,99465.52
2019-03-02T05:39:52.826Z,99460.65
2019-03-02T05:40:54.958Z,99455.46
2019-03-02T05:41:56.209Z,99458.98
2019-03-02T05:42:57.604Z,99444.27
2019-03-02T05:43:58.726Z,99451.45
2019-03-02T05:44:59.836Z,99465.52
2019-03-02T05:46:00.958Z,99455.66
2019-03-02T05:47:02.770Z,99456.67
2019-03-02T05:48:04.886Z,99450.80
2019-03-02T05:49:06.220Z,99442.77
2019-03-02T05:50:08.532Z,99447.80
2019-03-02T05:51:09.644Z,99448.64
2019-03-02T05:52:10.862Z,99446.98
2019-03-02T05:53:11.988Z,99451.00
2019-03-02T05:54:13.110Z,99449.13
2019-03-02T05:55:18.179Z,99452.34
2019-03-02T05:56:17.352Z,99457.16
2019-03-02T05:57:18.573Z,99450.15
2019-03-02T05:58:19.801Z,99450.15
2019-03-02T05:59:22.846Z,99452.83
2019-03-02T06:00:24.039Z,99447.47
2019-03-02T06:01:25.175Z,99444.80
2019-03-02T06:02:26.464Z,99445.64
2019-03-02T06:03:27.584Z,99453.67
2019-03-02T06:04:28.699Z,99449.13
2019-03-02T06:05:29.827Z,99445.12
2019-03-02T06:06:31.949Z,99445.97
2019-03-02T06:07:33.364Z,99437.09
2019-03-02T06:08:35.622Z,99436.27
2019-03-02T06:09:37.518Z,99442.44
2019-03-02T06:10:38.742Z,99429.58
2019-03-02T06:11:40.638Z,99421.87
2019-03-02T06:12:41.967Z,99425.04
2019-03-02T06:13:43.102Z,99424.55
2019-03-02T06:14:44.217Z,99416.52
2019-03-02T06:15:46.435Z,99422.69
2019-03-02T06:16:47.869Z,99422.19
2019-03-02T06:17:48.988Z,99413.96
2019-03-02T06:18:50.148Z,99417.16
2019-03-02T06:19:51.262Z,99418.99
2019-03-02T06:20:52.376Z,99419.31
2019-03-02T06:21:53.488Z,99420.33
2019-03-02T06:22:55.584Z,99416.64
2019-03-02T06:23:57.803Z,99412.63
2019-03-02T06:24:58.918Z,99401.59
2019-03-02T06:26:00.255Z,99409.62
2019-03-02T06:27:01.380Z,99404.27
2019-03-02T06:28:02.598Z,99396.23
2019-03-02T06:29:03.722Z,99400.25
2019-03-02T06:30:13.376Z,99388.20
2019-03-02T06:31:15.820Z,99395.22
2019-03-02T06:32:17.508Z,99392.22
2019-03-02T06:33:30.890Z,99403.45
2019-03-02T06:34:32.017Z,99399.93
2019-03-02T06:35:33.995Z,99411.81
2019-03-02T06:36:35.164Z,99409.95
2019-03-02T06:37:36.299Z,99410.14
2019-03-02T06:38:37.520Z,99407.96
2019-03-02T06:39:40.960Z,99409.30
2019-03-02T06:40:41.701Z,99414.16
2019-03-02T06:41:42.842Z,99409.62
2019-03-02T06:42:45.661Z,99403.13
2019-03-02T06:43:47.085Z,99406.30
2019-03-02T06:44:48.244Z,99399.61
2019-03-02T06:45:49.362Z,99390.23
2019-03-02T06:46:50.473Z,99392.59
2019-03-02T06:47:51.591Z,99393.11
2019-03-02T06:48:52.705Z,99393.61
2019-03-02T06:49:59.025Z,99393.28
2019-03-02T06:50:56.856Z,99386.59
2019-03-02T06:51:57.969Z,99378.56
2019-03-02T06:53:01.448Z,99389.79
2019-03-02T06:54:02.314Z,99388.95
2019-03-02T06:55:05.267Z,99378.23
2019-03-02T06:56:06.385Z,99385.78
2019-03-02T06:57:10.681Z,99372.88
2019-03-02T06:58:10.521Z,99372.56
2019-03-02T06:59:11.636Z,99380.09
2019-03-02T07:00:20.296Z,99373.09
2019-03-02T07:01:24.852Z,99373.41
2019-03-02T07:02:24.539Z,99372.56
2019-03-02T07:03:25.651Z,99369.39
2019-03-02T07:04:26.930Z,99372.23
2019-03-02T07:05:29.768Z,99373.58
2019-03-02T07:06:31.066Z,99378.93
2019-03-02T07:07:32.181Z,99382.78
2019-03-02T07:08:34.719Z,99371.55
2019-03-02T07:09:36.328Z,99374.22
2019-03-02T07:10:37.437Z,99382.41
2019-03-02T07:11:38.549Z,99382.20
2019-03-02T07:12:41.747Z,99381.02
2019-03-02T07:13:42.686Z,99375.29
2019-03-02T07:14:43.801Z,99371.92
2019-03-02T07:15:45.042Z,99374.05
2019-03-02T07:16:46.224Z,99386.05
2019-03-02T07:18:02.086Z,99387.84
2019-03-02T07:19:21.363Z,99390.29
2019-03-02T07:20:39.436Z,99381.83
2019-03-02T07:21:41.476Z,99374.70
2019-03-02T07:22:43.691Z,99379.62
2019-03-02T07:23:44.914Z,99382.64
2019-03-02T07:24:46.025Z,99383.92
2019-03-02T07:25:47.244Z,99379.84
2019-03-02T07:26:51.607Z,99387.82
2019-03-02T07:27:51.376Z,99389.42
2019-03-02T07:28:52.491Z,99390.21
2019-03-02T07:29:55.007Z,99391.28
2019-03-02T07:30:56.339Z,99393.20
2019-03-02T07:31:57.732Z,99384.60
2019-03-02T07:32:58.954Z,99381.69
2019-03-02T07:34:00.068Z,99386.28
2019-03-02T07:35:01.309Z,99387.03
2019-03-02T07:36:02.458Z,99382.77
2019-03-02T07:37:05.754Z,99387.36
2019-03-02T07:38:08.313Z,99375.05
2019-03-02T07:39:09.730Z,99378.47
2019-03-02T07:40:12.046Z,99368.30
2019-03-02T07:41:13.185Z,99365.61
2019-03-02T07:42:14.322Z,99364.84
2019-03-02T07:43:15.430Z,99367.45
2019-03-02T07:44:18.937Z,99353.95
2019-03-02T07:45:19.565Z,99350.17
2019-03-02T07:46:20.697Z,99363.52
2019-03-02T07:47:24.015Z,99358.59
2019-03-02T07:48:24.937Z,99367.70
2019-03-02T07:49:26.054Z,99365.47
2019-03-02T07:50:29.543Z,99358.69
2019-03-02T07:51:30.383Z,99369.88
2019-03-02T07:52:31.504Z,99364.42
2019-03-02T07:53:32.620Z,99363.19
2019-03-02T07:54:33.743Z,99362.47
2019-03-02T07:55:34.857Z,99357.55
2019-03-02T07:56:36.154Z,99362.53
2019-03-02T07:57:40.592Z,99360.16
2019-03-02T07:58:40.389Z,99358.41
2019-03-02T07:59:41.504Z,99365.27
2019-03-02T08:00:42.624Z,99365.36
2019-03-02T08:01:43.754Z,99360.30
2019-03-02T08:02:45.064Z,99358.78
2019-03-02T08:03:46.180Z,99354.35
2019-03-02T08:04:47.297Z,99349.61
2019-03-02T08:05:50.714Z,99349.39
2019-03-02T08:06:51.473Z,99352.71
2019-03-02T08:07:52.583Z,99346.31
2019-03-02T08:08:53.812Z,99344.28
2019-03-02T08:09:55.043Z,99332.19
2019-03-02T08:10:56.163Z,99325.30
2019-03-02T08:11:57.462Z,99330.98
2019-03-02T08:13:00.872Z,99325.92
2019-03-02T08:14:01.704Z,99324.58
2019-03-02T08:15:05.839Z,99327.58
2019-03-02T08:16:06.969Z,99325.20
2019-03-02T08:17:09.806Z,99319.64
2019-03-02T08:18:11.470Z,99321.30
2019-03-02T08:19:12.688Z,99325.02
2019-03-02T08:20:16.546Z,99313.74
2019-03-02T08:21:17.924Z,99310.55
2019-03-02T08:22:19.247Z,99313.24
2019-03-02T08:23:20.362Z,99306.52
2019-03-02T08:24:21.475Z,99307.87
2019-03-02T08:25:22.594Z,99316.74
2019-03-02T08:26:23.710Z,99307.87
2019-03-02T08:27:25.009Z,99314.37
2019-03-02T08:28:26.124Z,99313.87
2019-03-02T08:29:27.247Z,99309.84
2019-03-02T08:30:29.890Z,99308.50
2019-03-02T08:31:31.488Z,99313.34
2019-03-02T08:32:32.850Z,99319.55
2019-03-02T08:33:34.469Z,99316.88
2019-03-02T08:34:35.785Z,99319.02
2019-03-02T08:35:37.018Z,99317.68
2019-03-02T08:36:38.140Z,99327.40
2019-03-02T08:37:39.562Z,99333.62
2019-03-02T08:38:40.681Z,99333.62
2019-03-02T08:39:42.850Z,99338.99
2019-03-02T08:40:44.923Z,99336.63
2019-03-02T08:41:46.060Z,99330.93
2019-03-02T08:42:47.305Z,99329.90
2019-03-02T08:43:48.436Z,99326.69
2019-03-02T08:44:50.744Z,99322.66
2019-03-02T08:45:52.674Z,99316.78
2019-03-02T08:46:53.786Z,99322.97
2019-03-02T08:47:55.021Z,99328.88
2019-03-02T08:48:56.242Z,99333.40
2019-03-02T08:49:57.360Z,99326.69
2019-03-02T08:50:58.477Z,99329.06
2019-03-02T08:51:59.594Z,99329.59
2019-03-02T08:53:00.831Z,99325.87
2019-03-02T08:54:02.045Z,99331.42
2019-03-02T08:55:04.857Z,99323.91
2019-03-02T08:56:09.774Z,99325.96
2019-03-02T08:57:08.991Z,99325.64
2019-03-02T08:58:10.148Z,99323.98
2019-03-02T08:59:11.258Z,99320.98
2019-03-02T09:00:18.533Z,99327.70
2019-03-02T09:01:19.790Z,99321.17
2019-03-02T09:02:20.978Z,99320.36
2019-03-02T09:03:22.101Z,99321.89
2019-03-02T09:04:23.215Z,99314.55
2019-03-02T09:05:42.990Z,99311.05
2019-03-02T09:06:27.360Z,99313.73
2019-03-02T09:07:30.370Z,99308.02
2019-03-02T09:08:32.058Z,99303.98
2019-03-02T09:09:33.273Z,99306.36
2019-03-02T09:10:34.485Z,99305.86
2019-03-02T09:11:35.799Z,99309.36
2019-03-02T09:12:36.915Z,99305.52
2019-03-02T09:13:38.039Z,99302.33
2019-03-02T09:14:39.156Z,99310.20
2019-03-02T09:15:40.275Z,99308.02
2019-03-02T09:16:41.907Z,99299.14
2019-03-02T09:17:43.812Z,99297.27
2019-03-02T09:18:45.925Z,99297.61
2019-03-02T09:19:47.165Z,99300.30
2019-03-02T09:20:48.286Z,99301.64
2019-03-02T09:21:49.404Z,99296.27
2019-03-02T09:22:50.532Z,99298.95
2019-03-02T09:23:51.886Z,99296.58
2019-03-02T09:24:53.038Z,99297.08
2019-03-02T09:25:54.156Z,99292.55
2019-03-02T09:26:55.273Z,99292.02
2019-03-02T09:27:56.390Z,99290.99
2019-03-02T09:28:57.654Z,99282.44
2019-03-02T09:29:59.241Z,99286.15
2019-03-02T09:31:02.133Z,99288.93
2019-03-02T09:32:04.616Z,99293.18
2019-03-02T09:33:05.732Z,99292.97
2019-03-02T09:34:06.865Z,99283.78
2019-03-02T09:35:12.865Z,99291.63
2019-03-02T09:36:13.093Z,99284.09
2019-03-02T09:37:14.208Z,99282.75
2019-03-02T09:38:17.058Z,99282.22
2019-03-02T09:39:18.540Z,99281.72
2019-03-02T09:40:24.767Z,99289.78
2019-03-02T09:41:26.405Z,99285.75
2019-03-02T09:42:27.532Z,99291.84
2019-03-02T09:43:28.656Z,99296.18
2019-03-02T09:44:32.734Z,99287.81
2019-03-02T09:45:32.902Z,99294.21
2019-03-02T09:46:34.020Z,99281.28
2019-03-02T09:47:35.241Z,99285.52
2019-03-02T09:48:36.364Z,99286.52
2019-03-02T09:49:38.296Z,99294.58
2019-03-02T09:50:39.598Z,99292.80
2019-03-02T09:51:40.826Z,99303.01
2019-03-02T09:52:41.950Z,99297.64
2019-03-02T09:53:43.709Z,99297.55
2019-03-02T09:54:44.995Z,99296.70
2019-03-02T09:55:46.116Z,99299.07
2019-03-02T09:56:47.333Z,99292.04
2019-03-02T09:57:48.605Z,99303.31
2019-03-02T09:58:49.674Z,99303.50
2019-03-02T09:59:50.970Z,99307.75
2019-03-02T10:00:52.085Z,99309.27
2019-03-02T10:01:53.565Z,99306.27
2019-03-02T10:02:55.220Z,99308.33
2019-03-02T10:03:58.866Z,99312.05
2019-03-02T10:04:59.495Z,99306.36
2019-03-02T10:06:00.715Z,99326.19
2019-03-02T10:07:03.167Z,99331.77
2019-03-02T10:08:04.472Z,99331.24
2019-03-02T10:09:05.985Z,99330.92
2019-03-02T10:10:09.841Z,99337.33
2019-03-02T10:11:10.958Z,99336.17
2019-03-02T10:12:13.772Z,99338.85
2019-03-02T10:13:15.207Z,99342.07
2019-03-02T10:14:24.904Z,99345.78
2019-03-02T10:15:25.143Z,99349.50
2019-03-02T10:16:26.250Z,99338.75
2019-03-02T10:17:27.371Z,99347.84
2019-03-02T10:18:28.477Z,99344.84
2019-03-02T10:19:29.804Z,99367.98
2019-03-02T10:20:31.126Z,99358.27
2019-03-02T10:21:32.246Z,99363.31
2019-03-02T10:22:35.259Z,99371.69
2019-03-02T10:23:38.930Z,99374.06
2019-03-02T10:24:39.742Z,99377.56
2019-03-02T10:25:40.964Z,99374.88
2019-03-02T10:26:43.469Z,99380.25
2019-03-02T10:27:46.910Z,99376.22
2019-03-02T10:28:48.117Z,99384.59
2019-03-02T10:29:49.521Z,99378.91
2019-03-02T10:30:50.661Z,99377.06
2019-03-02T10:31:51.780Z,99373.84
2019-03-02T10:32:55.676Z,99362.61
2019-03-02T10:33:55.930Z,99367.45
2019-03-02T10:34:57.043Z,99361.58
2019-03-02T10:35:58.212Z,99360.55
2019-03-02T10:36:59.313Z,99365.21
2019-03-02T10:38:00.436Z,99375.95
2019-03-02T10:39:02.546Z,99366.55
2019-03-02T10:40:10.381Z,99373.59
2019-03-02T10:41:11.653Z,99370.90
2019-03-02T10:42:12.890Z,99362.66
2019-03-02T10:43:14.018Z,99370.19
2019-03-02T10:44:17.732Z,99372.88
2019-03-02T10:45:19.148Z,99383.93
2019-03-02T10:46:20.376Z,99376.41
2019-03-02T10:47:21.495Z,99370.50
2019-03-02T10:48:22.613Z,99373.50
2019-03-02T10:49:23.725Z,99368.98
2019-03-02T10:50:26.639Z,99373.50
2019-03-02T10:51:27.768Z,99371.66
2019-03-02T10:52:28.885Z,99374.13
2019-03-02T10:53:30.000Z,99373.11
2019-03-02T10:54:31.623Z,99375.48
2019-03-02T10:55:34.141Z,99370.42
2019-03-02T10:56:36.511Z,99379.82
2019-03-02T10:57:37.791Z,99381.16
2019-03-02T10:58:39.854Z,99374.45
2019-03-02T10:59:41.227Z,99372.61
2019-03-02T11:00:42.446Z,99371.77
2019-03-02T11:01:44.852Z,99370.63
2019-03-02T11:02:46.207Z,99368.45
2019-03-02T11:03:47.328Z,99371.13
2019-03-02T11:04:50.341Z,99378.38
2019-03-02T11:05:56.968Z,99382.91
2019-03-02T11:07:01.127Z,99382.91
2019-03-02T11:08:07.184Z,99384.56
2019-03-02T11:09:13.231Z,99380.53
2019-03-02T11:10:16.619Z,99389.94
2019-03-02T11:11:29.842Z,99385.19
2019-03-02T11:12:43.278Z,99382.51
2019-03-02T11:13:56.522Z,99375.48
2019-03-02T11:14:59.571Z,99373.95
2019-03-02T11:16:08.383Z,99376.64
2019-03-02T11:17:27.661Z,99376.81
2019-03-02T11:18:30.950Z,99364.73
2019-03-02T11:19:52.438Z,99373.81
2019-03-02T11:20:55.786Z,99368.13
2019-03-02T11:22:00.877Z,99375.37
2019-03-02T11:23:09.712Z,99375.06
2019-03-02T11:24:12.732Z,99378.77
2019-03-02T11:25:27.825Z,99378.42
2019-03-02T11:26:45.767Z,99383.80
2019-03-02T11:27:49.677Z,99382.45
2019-03-02T11:28:54.089Z,99387.51
2019-03-02T11:30:03.333Z,99392.38
2019-03-02T11:31:06.348Z,99390.72
2019-03-02T11:32:20.302Z,99394.22
2019-03-02T11:33:30.871Z,99399.09
2019-03-02T11:34:36.632Z,99394.04
2019-03-02T11:35:39.654Z,99397.75
2019-03-02T11:36:59.081Z,99398.91
2019-03-02T11:38:04.787Z,99398.56
2019-03-02T11:39:17.308Z,99398.06
2019-03-02T11:40:19.956Z,99403.76
2019-03-02T11:41:22.984Z,99397.05
2019-03-02T11:42:29.043Z,99406.44
2019-03-02T11:43:36.802Z,99404.60
2019-03-02T11:44:40.044Z,99409.45
2019-03-02T11:45:43.157Z,99411.10
2019-03-02T11:46:57.963Z,99415.66
2019-03-02T11:48:03.531Z,99408.95
2019-03-02T11:49:30.482Z,99422.37
2019-03-02T11:50:41.451Z,99426.72
2019-03-02T11:51:47.044Z,99433.93
2019-03-02T11:52:56.030Z,99426.91
2019-03-02T11:54:15.536Z,99432.27
2019-03-02T11:55:35.032Z,99435.48
2019-03-02T11:56:46.484Z,99436.83
2019-03-02T11:58:05.266Z,99449.73
2019-03-02T11:59:26.295Z,99450.26
2019-03-02T12:00:37.498Z,99448.92
2019-03-02T12:01:35.344Z,99451.60
2019-03-02T12:02:41.087Z,99453.76
2019-03-02T12:03:49.663Z,99451.60
2019-03-02T12:05:01.576Z,99453.76
2019-03-02T12:06:21.445Z,99453.76
2019-03-02T12:07:30.068Z,99455.10
2019-03-02T12:08:36.002Z,99459.13
2019-03-02T12:09:39.020Z,99467.41
2019-03-02T12:10:44.554Z,99465.53